KNZY/NZY METAR and TAF weather

Enter ICAO airport designator
Station Type Date Time Source
KNZY METAR 2020/04/05 12:52 UTC NOAA

KNZY 051252Z AUTO 16011KT 10SM BKN028 OVC034 14/08 A2990 RMK AO2 SLP124 T01440083


Station Type Date Time Source
KNZY Decoded METAR 2020/04/05 12:52 UTC NOAA

NAS NORTH ISLAND, SAN DIEGO, CA, United States (KNZY) 32-42N 117-13W 14M
Apr 05, 2020 - 08:52 AM EDT / 2020.04.05 1252 UTC
Wind: from the SSE (160 degrees) at 13 MPH (11 KT):0
Visibility: 10 mile(s):0
Sky conditions: overcast
Temperature: 57.9 F (14.4 C)
Dew Point: 46.9 F (8.3 C)
Relative Humidity: 66%
Pressure (altimeter): 29.9 in. Hg (1012 hPa)
ob: KNZY 051252Z AUTO 16011KT 10SM BKN028 OVC034 14/08 A2990 RMK AO2 SLP124 T01440083
cycle: 13

Station Type Date Time Source
KNZY TAF 2020/04/05 07:06 UTC NOAA

TAF KNZY 0507/0607 20009KT 9999 BKN030 QNH2985INS
TEMPO 0507/0513 SCT030 T12/0513Z T18/0523Z FS30162

Example: see airport list